Time;durP1;ratioP1;P1;durP2;ratioP2;P2;SDS_P1;SDS_P2;PMS_P1;PMS_P2;Temp;Humidity;BMP_temperature;BMP_pressure;BME280_temperature;BME280_humidity;BME280_pressure;Samples;Min_cycle;Max_cycle;Signal;HPM_P1;HPM_P2
2022/01/21 00:00:24;;;;;;;1.80;1.33;;;-1.10;97.30;;;;;;5095684;28;20494;-85
2022/01/21 00:02:50;;;;;;;2.50;1.60;;;-1.10;97.30;;;;;;5077764;28;20183;-85
2022/01/21 00:05:16;;;;;;;1.93;1.47;;;-1.10;97.30;;;;;;5078058;28;20262;-87
2022/01/21 00:07:42;;;;;;;9.40;1.60;;;-1.20;97.30;;;;;;5077385;28;20425;-86
2022/01/21 00:10:08;;;;;;;6.77;1.90;;;-1.20;97.30;;;;;;5077183;28;20226;-86
2022/01/21 00:12:35;;;;;;;6.63;1.83;;;-1.20;97.30;;;;;;5077169;28;20752;-86
2022/01/21 00:15:01;;;;;;;3.57;1.57;;;-1.20;97.30;;;;;;5077248;28;20412;-85
2022/01/21 00:17:26;;;;;;;2.53;1.63;;;-1.20;97.30;;;;;;5077345;28;20476;-86
2022/01/21 00:30:04;;;;;;;5.87;1.70;;;-1.20;97.30;;;;;;5095162;28;20186;-85
2022/01/21 00:30:49;;;;;;;5.10;1.57;;;-1.30;97.30;;;;;;5095477;28;20446;-86
2022/01/21 00:33:15;;;;;;;9.90;2.13;;;-1.30;97.30;;;;;;5076936;28;20432;-86
2022/01/21 00:35:40;;;;;;;7.20;1.60;;;-1.30;97.30;;;;;;5095168;28;20178;-86
2022/01/21 00:38:06;;;;;;;4.90;1.63;;;-1.40;97.30;;;;;;5076911;28;20174;-85
2022/01/21 00:40:33;;;;;;;2.30;1.67;;;-1.40;97.30;;;;;;5076855;28;20254;-86
2022/01/21 00:43:30;;;;;;;7.27;1.47;;;-1.40;97.30;;;;;;5076629;28;20256;-85
2022/01/21 00:45:56;;;;;;;3.57;1.30;;;-1.40;97.30;;;;;;5076949;28;20413;-86
2022/01/21 00:48:21;;;;;;;9.07;1.73;;;-1.40;97.30;;;;;;5094822;28;20526;-86
2022/01/21 00:50:50;;;;;;;7.30;1.73;;;-1.40;97.30;;;;;;5076774;28;20564;-85
2022/01/21 00:53:15;;;;;;;2.47;1.60;;;-1.50;97.30;;;;;;5077113;28;20174;-86
2022/01/21 00:55:41;;;;;;;12.40;1.60;;;-1.50;97.30;;;;;;5076896;28;20790;-86
2022/01/21 00:58:07;;;;;;;7.83;1.63;;;-1.50;97.30;;;;;;5076582;28;20174;-86
2022/01/21 01:00:33;;;;;;;3.50;1.20;;;-1.50;97.30;;;;;;5076468;28;20199;-86
2022/01/21 01:02:59;;;;;;;9.00;1.70;;;-1.50;97.30;;;;;;5076324;28;20185;-85
2022/01/21 01:05:25;;;;;;;10.13;1.50;;;-1.50;97.30;;;;;;5076265;28;20423;-85
2022/01/21 01:07:51;;;;;;;2.90;1.60;;;-1.40;97.30;;;;;;5076257;28;20478;-85
2022/01/21 01:10:24;;;;;;;6.07;1.40;;;-1.50;97.30;;;;;;5076436;28;20460;-86
2022/01/21 01:13:00;;;;;;;12.40;1.47;;;-1.50;97.30;;;;;;5094615;28;20161;-86
2022/01/21 01:20:54;;;;;;;2.27;1.30;;;-1.50;97.30;;;;;;5096436;28;20881;-86
2022/01/21 01:23:27;;;;;;;2.50;1.40;;;-1.50;97.30;;;;;;5084131;28;20412;-86
2022/01/21 01:28:38;;;;;;;2.20;1.27;;;-1.60;97.30;;;;;;5094162;28;20388;-86
2022/01/21 01:31:03;;;;;;;2.93;1.37;;;-1.60;97.30;;;;;;5094184;28;20456;-86
2022/01/21 01:33:35;;;;;;;7.57;1.70;;;-1.60;97.30;;;;;;5075813;28;20430;-86
2022/01/21 01:36:03;;;;;;;2.87;1.70;;;-1.60;97.30;;;;;;5076089;28;20185;-86
2022/01/21 01:38:51;;;;;;;4.77;1.47;;;-1.60;97.30;;;;;;5075715;28;20833;-86
2022/01/21 01:41:18;;;;;;;6.33;1.70;;;-1.60;97.30;;;;;;5093569;28;20431;-86
2022/01/21 01:49:29;;;;;;;4.97;1.60;;;-1.60;97.30;;;;;;5091660;28;20428;-85
2022/01/21 01:51:57;;;;;;;6.73;1.40;;;-1.70;97.30;;;;;;5073693;28;20547;-86
2022/01/21 01:54:23;;;;;;;5.53;1.20;;;-1.70;97.30;;;;;;5077514;28;20412;-86
2022/01/21 01:56:55;;;;;;;8.50;1.90;;;-1.70;97.30;;;;;;5078601;28;20780;-86
2022/01/21 01:59:20;;;;;;;4.13;1.30;;;-1.70;97.30;;;;;;5075218;28;20439;-86
2022/01/21 02:01:59;;;;;;;2.50;1.57;;;-1.70;97.30;;;;;;5075749;28;20420;-86
2022/01/21 02:04:25;;;;;;;3.63;1.30;;;-1.70;97.30;;;;;;5075320;28;20171;-86
2022/01/21 02:06:51;;;;;;;1.80;1.00;;;-1.70;97.30;;;;;;5075172;28;20858;-86
2022/01/21 02:09:17;;;;;;;2.13;1.50;;;-1.80;97.30;;;;;;5075089;28;20431;-86
2022/01/21 02:11:43;;;;;;;5.27;1.87;;;-1.80;97.30;;;;;;5074716;28;20457;-86
2022/01/21 02:14:13;;;;;;;5.37;1.50;;;-1.80;97.30;;;;;;5074942;28;20202;-86
2022/01/21 02:22:10;;;;;;;4.03;1.47;;;-1.80;97.30;;;;;;5093591;28;20392;-85
2022/01/21 02:24:54;;;;;;;2.20;1.30;;;-1.80;97.30;;;;;;5074871;28;20462;-86
2022/01/21 02:27:20;;;;;;;1.67;1.30;;;-1.80;97.30;;;;;;5075395;28;20444;-86
2022/01/21 02:29:48;;;;;;;3.90;1.50;;;-1.90;97.30;;;;;;5074877;28;20460;-86
2022/01/21 02:32:15;;;;;;;6.37;1.50;;;-1.90;97.30;;;;;;5075513;28;20198;-86
2022/01/21 02:34:41;;;;;;;12.10;1.67;;;-1.90;97.30;;;;;;5078376;28;20413;-86
2022/01/21 02:37:08;;;;;;;3.63;1.40;;;-1.90;97.30;;;;;;5093980;28;20914;-86
2022/01/21 02:39:33;;;;;;;3.23;1.67;;;-1.90;97.30;;;;;;5074355;28;20503;-86
2022/01/21 02:41:59;;;;;;;5.70;1.60;;;-1.90;97.30;;;;;;5074580;28;20444;-86
2022/01/21 02:44:25;;;;;;;3.27;1.30;;;-1.90;97.30;;;;;;5074387;28;20188;-86
2022/01/21 02:46:57;;;;;;;7.93;1.53;;;-1.90;97.30;;;;;;5074585;28;20189;-86
2022/01/21 02:49:23;;;;;;;3.20;1.40;;;-1.90;97.30;;;;;;5092522;28;20706;-86
2022/01/21 02:51:53;;;;;;;2.87;1.00;;;-1.90;97.30;;;;;;5092607;28;20448;-86
2022/01/21 02:54:19;;;;;;;4.63;1.47;;;-1.90;97.30;;;;;;5074612;28;20268;-85
2022/01/21 02:56:44;;;;;;;2.00;1.33;;;-1.90;97.30;;;;;;5074180;28;20427;-86
2022/01/21 02:59:11;;;;;;;3.27;1.33;;;-1.90;97.30;;;;;;5074366;28;20511;-85
2022/01/21 03:01:40;;;;;;;7.37;1.40;;;-1.90;97.30;;;;;;5074456;28;20265;-85
2022/01/21 03:04:07;;;;;;;3.50;1.50;;;-1.90;97.30;;;;;;5074498;28;20413;-86
2022/01/21 03:06:36;;;;;;;3.17;1.53;;;-1.90;97.30;;;;;;5074379;28;20409;-86
2022/01/21 03:09:03;;;;;;;4.50;1.80;;;-1.90;97.30;;;;;;5074225;28;20930;-86
2022/01/21 03:11:29;;;;;;;4.53;1.43;;;-2.00;97.30;;;;;;5074079;28;21202;-86
2022/01/21 03:13:55;;;;;;;9.90;2.13;;;-2.00;97.30;;;;;;5074313;28;20443;-86
2022/01/21 03:16:21;;;;;;;1.87;1.77;;;-2.00;97.30;;;;;;5074399;28;20183;-86
2022/01/21 03:18:46;;;;;;;3.93;1.57;;;-2.10;97.30;;;;;;5092040;28;20435;-86
2022/01/21 03:21:16;;;;;;;2.90;1.50;;;-2.10;97.30;;;;;;5091805;28;20636;-85
2022/01/21 03:23:47;;;;;;;5.57;1.87;;;-2.10;97.30;;;;;;5074138;28;20174;-86
2022/01/21 03:26:14;;;;;;;2.83;1.70;;;-2.10;97.30;;;;;;5092302;28;20401;-86
2022/01/21 03:28:41;;;;;;;5.33;1.63;;;-2.20;97.30;;;;;;5074189;28;20433;-86
2022/01/21 03:31:06;;;;;;;3.13;1.40;;;-2.10;97.30;;;;;;5076331;28;20830;-86
2022/01/21 03:33:32;;;;;;;4.03;1.67;;;-2.10;97.30;;;;;;5078452;28;20411;-86
2022/01/21 03:35:58;;;;;;;4.97;1.63;;;-2.10;97.30;;;;;;5078013;28;20730;-86
2022/01/21 03:38:26;;;;;;;3.03;1.43;;;-2.10;97.30;;;;;;5077812;28;20175;-85
2022/01/21 03:40:52;;;;;;;2.60;1.30;;;-2.10;97.30;;;;;;5077857;28;20554;-86
2022/01/21 03:43:19;;;;;;;3.20;1.57;;;-2.10;97.30;;;;;;5077748;28;20839;-86
2022/01/21 03:45:45;;;;;;;4.77;1.40;;;-2.00;97.30;;;;;;5077969;28;20420;-86
2022/01/21 03:48:11;;;;;;;7.20;1.70;;;-2.10;97.30;;;;;;5074904;28;20416;-86
2022/01/21 03:50:36;;;;;;;4.57;1.60;;;-2.00;97.30;;;;;;5074462;28;20202;-86
2022/01/21 03:53:04;;;;;;;5.23;2.50;;;-2.00;97.30;;;;;;5076609;28;20172;-86
2022/01/21 03:55:30;;;;;;;5.70;1.30;;;-2.00;97.30;;;;;;5077823;28;20266;-86
2022/01/21 03:57:57;;;;;;;5.07;2.03;;;-2.00;97.30;;;;;;5077744;28;20801;-86
2022/01/21 04:00:25;;;;;;;3.77;1.53;;;-2.00;97.30;;;;;;5077609;28;21122;-86
2022/01/21 04:02:52;;;;;;;4.60;1.53;;;-2.00;97.30;;;;;;5077541;28;20420;-85
2022/01/21 04:05:18;;;;;;;1.77;1.67;;;-2.00;97.30;;;;;;5095628;28;20408;-86
2022/01/21 04:07:45;;;;;;;9.03;2.23;;;-2.00;97.30;;;;;;5077589;28;20408;-86
2022/01/21 04:10:10;;;;;;;1.73;1.47;;;-2.00;97.30;;;;;;5077644;28;20595;-86
2022/01/21 04:12:36;;;;;;;2.60;1.30;;;-2.00;97.30;;;;;;5077505;28;20551;-86
2022/01/21 04:15:02;;;;;;;3.27;1.30;;;-2.00;97.30;;;;;;5077495;28;20175;-86
2022/01/21 04:17:28;;;;;;;2.73;1.70;;;-1.90;97.30;;;;;;5077417;28;20181;-86
2022/01/21 04:19:53;;;;;;;1.87;1.33;;;-1.90;97.30;;;;;;5077077;28;20199;-86
2022/01/21 04:22:20;;;;;;;3.23;1.50;;;-1.90;97.30;;;;;;5077123;28;20425;-86
2022/01/21 04:24:47;;;;;;;4.27;1.60;;;-1.90;97.30;;;;;;5077030;28;20416;-86
2022/01/21 04:27:13;;;;;;;1.40;1.30;;;-1.90;97.30;;;;;;5076801;28;20412;-86
2022/01/21 04:29:39;;;;;;;4.30;1.37;;;-1.90;97.30;;;;;;5095240;28;20428;-86
2022/01/21 04:32:05;;;;;;;1.60;1.23;;;-1.90;97.30;;;;;;5094962;28;20233;-86
2022/01/21 04:34:30;;;;;;;4.40;1.27;;;-1.90;97.30;;;;;;5076900;28;20170;-86
2022/01/21 04:36:56;;;;;;;3.57;1.50;;;-1.90;97.30;;;;;;5077093;28;20413;-86
2022/01/21 04:39:30;;;;;;;4.33;1.97;;;-1.90;97.30;;;;;;5077013;28;20231;-86
2022/01/21 04:47:24;;;;;;;4.00;1.43;;;-2.00;97.30;;;;;;5095016;28;20434;-84
2022/01/21 04:49:50;;;;;;;1.30;1.20;;;-2.00;97.30;;;;;;5076138;28;20870;-85
2022/01/21 04:52:16;;;;;;;3.13;1.30;;;-2.00;97.30;;;;;;5076298;28;20232;-86
2022/01/21 04:54:41;;;;;;;2.57;0.90;;;-2.10;97.30;;;;;;5076672;28;20537;-85
2022/01/21 04:57:07;;;;;;;4.37;1.70;;;-2.10;97.30;;;;;;5076942;28;20174;-85
2022/01/21 04:59:33;;;;;;;2.80;1.70;;;-2.10;97.30;;;;;;5076755;28;20191;-85
2022/01/21 05:01:59;;;;;;;8.23;2.30;;;-2.20;97.30;;;;;;5094705;28;20482;-86
2022/01/21 05:04:25;;;;;;;4.23;1.63;;;-2.10;97.30;;;;;;5076966;28;20423;-86
2022/01/21 05:06:52;;;;;;;7.40;1.77;;;-2.10;97.30;;;;;;5076920;28;20417;-86
2022/01/21 05:09:19;;;;;;;2.47;1.30;;;-2.20;97.30;;;;;;5076773;28;20209;-85
2022/01/21 05:11:46;;;;;;;2.47;1.47;;;-2.20;97.30;;;;;;5076246;28;20478;-86
2022/01/21 05:14:24;;;;;;;6.27;1.47;;;-2.20;97.30;;;;;;5076673;28;20415;-85
2022/01/21 05:16:53;;;;;;;4.97;1.47;;;-2.20;97.30;;;;;;5094600;28;20770;-85
2022/01/21 05:19:19;;;;;;;5.37;1.90;;;-2.20;97.30;;;;;;5076752;28;20437;-86
2022/01/21 05:21:47;;;;;;;2.57;1.40;;;-2.30;97.30;;;;;;5076495;28;20440;-86
2022/01/21 05:24:13;;;;;;;3.47;1.57;;;-2.30;97.30;;;;;;5076086;28;20412;-86
2022/01/21 05:26:41;;;;;;;3.20;1.27;;;-2.30;97.30;;;;;;5077085;28;20415;-85
2022/01/21 05:29:09;;;;;;;3.00;1.30;;;-2.30;97.30;;;;;;5076333;28;20447;-86
2022/01/21 05:31:35;;;;;;;3.67;1.60;;;-2.30;97.30;;;;;;5076136;28;20539;-86
2022/01/21 05:34:01;;;;;;;7.23;1.70;;;-2.30;97.30;;;;;;5076034;28;20455;-85
2022/01/21 05:36:27;;;;;;;1.80;1.43;;;-2.30;97.30;;;;;;5076131;28;20201;-85
2022/01/21 05:38:54;;;;;;;2.20;1.63;;;-2.30;97.30;;;;;;5076186;28;20464;-86
2022/01/21 05:41:23;;;;;;;4.93;1.47;;;-2.30;97.30;;;;;;5078153;28;20843;-85
2022/01/21 05:43:49;;;;;;;2.07;1.23;;;-2.40;97.30;;;;;;5076054;28;20409;-85
2022/01/21 05:48:59;;;;;;;5.80;1.60;;;-2.30;97.30;;;;;;5095793;28;20451;-85
2022/01/21 05:51:24;;;;;;;1.57;1.40;;;-2.40;97.30;;;;;;5078319;28;20966;-86
2022/01/21 05:53:50;;;;;;;8.70;1.93;;;-2.40;97.30;;;;;;5093046;28;20206;-86
2022/01/21 05:56:15;;;;;;;13.67;1.77;;;-2.40;97.30;;;;;;5075984;28;20262;-86
2022/01/21 05:58:41;;;;;;;7.90;2.10;;;-2.40;97.30;;;;;;5075982;28;20193;-85
2022/01/21 06:01:07;;;;;;;2.50;1.50;;;-2.40;97.30;;;;;;5075834;28;20174;-85
2022/01/21 06:03:33;;;;;;;8.93;1.77;;;-2.40;97.30;;;;;;5093725;28;20697;-86
2022/01/21 06:05:59;;;;;;;4.17;1.83;;;-2.30;97.30;;;;;;5076051;28;20210;-86
2022/01/21 06:08:25;;;;;;;4.03;1.90;;;-2.30;97.30;;;;;;5075839;28;20455;-85
2022/01/21 06:10:51;;;;;;;4.83;1.70;;;-2.40;97.30;;;;;;5075115;28;20179;-86
2022/01/21 06:13:18;;;;;;;8.67;1.80;;;-2.40;97.30;;;;;;5075350;28;20410;-85
2022/01/21 06:15:44;;;;;;;2.73;1.73;;;-2.40;97.30;;;;;;5075646;28;20637;-86
2022/01/21 06:18:10;;;;;;;3.13;2.17;;;-2.40;97.30;;;;;;5074189;28;20427;-85
2022/01/21 06:20:36;;;;;;;4.83;1.70;;;-2.30;97.30;;;;;;5091188;28;20436;-85
2022/01/21 06:23:01;;;;;;;6.07;2.17;;;-2.30;97.30;;;;;;5073180;28;20189;-87
2022/01/21 06:25:27;;;;;;;14.63;2.43;;;-2.30;97.30;;;;;;5075419;28;20170;-86
2022/01/21 06:27:52;;;;;;;4.93;1.83;;;-2.30;97.30;;;;;;5074163;28;20189;-86
2022/01/21 06:30:18;;;;;;;5.77;1.93;;;-2.30;97.30;;;;;;5090994;28;20190;-86
2022/01/21 06:32:43;;;;;;;9.33;1.97;;;-2.30;97.30;;;;;;5072374;28;20210;-86
2022/01/21 06:35:10;;;;;;;4.97;2.30;;;-2.20;97.30;;;;;;5059883;28;20175;-85
2022/01/21 06:37:36;;;;;;;4.00;1.87;;;-2.20;97.30;;;;;;5070282;28;20196;-86
2022/01/21 06:40:07;;;;;;;6.60;2.27;;;-2.20;97.30;;;;;;5036848;28;20493;-87
2022/01/21 06:42:32;;;;;;;12.57;2.50;;;-2.20;97.30;;;;;;5033692;28;20467;-87
2022/01/21 06:44:58;;;;;;;4.67;2.30;;;-2.20;97.30;;;;;;5035202;28;20453;-86
2022/01/21 06:47:24;;;;;;;12.33;2.47;;;-2.20;97.30;;;;;;5035008;28;20172;-86
2022/01/21 06:49:50;;;;;;;12.40;3.50;;;-2.20;97.30;;;;;;5034884;28;20203;-86
2022/01/21 06:52:15;;;;;;;12.60;2.70;;;-2.20;97.30;;;;;;5034844;28;20465;-86
2022/01/21 06:54:41;;;;;;;8.40;2.20;;;-2.20;97.30;;;;;;5035192;28;20282;-86
2022/01/21 06:57:06;;;;;;;5.17;2.57;;;-2.20;97.30;;;;;;5034940;28;20277;-85
2022/01/21 06:59:32;;;;;;;10.50;2.00;;;-2.20;97.30;;;;;;5052708;28;20202;-86
2022/01/21 07:01:57;;;;;;;2.47;1.70;;;-2.10;97.30;;;;;;5034678;28;20188;-86
2022/01/21 07:04:23;;;;;;;9.50;3.03;;;-2.10;97.30;;;;;;5034223;28;20175;-87
2022/01/21 07:06:48;;;;;;;12.63;2.70;;;-2.10;97.30;;;;;;5051876;28;20184;-86
2022/01/21 07:09:14;;;;;;;11.37;3.30;;;-2.00;97.30;;;;;;5034259;28;20249;-86
2022/01/21 07:11:39;;;;;;;7.57;3.70;;;-2.00;97.30;;;;;;5034640;28;20270;-86
2022/01/21 07:14:05;;;;;;;6.13;3.70;;;-2.00;97.30;;;;;;5034445;28;20180;-86
2022/01/21 07:16:30;;;;;;;5.27;2.40;;;-1.90;97.30;;;;;;5034751;28;20231;-85
2022/01/21 07:18:56;;;;;;;7.80;3.17;;;-1.90;97.30;;;;;;5034488;28;20219;-86
2022/01/21 07:21:21;;;;;;;5.77;2.60;;;-1.90;97.30;;;;;;5052436;28;20645;-86
2022/01/21 07:23:47;;;;;;;6.27;2.87;;;-1.80;97.30;;;;;;5035549;28;20637;-86
2022/01/21 07:26:14;;;;;;;13.97;2.47;;;-1.80;97.30;;;;;;5036619;28;20707;-86
2022/01/21 07:28:39;;;;;;;9.93;3.63;;;-1.80;97.30;;;;;;5042919;28;20186;-86
2022/01/21 07:31:05;;;;;;;5.53;2.87;;;-1.70;97.30;;;;;;5035636;28;20458;-85
2022/01/21 07:33:31;;;;;;;4.70;2.77;;;-1.70;97.30;;;;;;5034565;28;20633;-86
2022/01/21 07:35:56;;;;;;;3.53;2.40;;;-1.60;97.30;;;;;;5052465;28;20286;-86
2022/01/21 07:38:22;;;;;;;14.17;4.53;;;-1.60;97.30;;;;;;5033399;28;20642;-86
2022/01/21 07:40:48;;;;;;;13.60;3.93;;;-1.60;97.30;;;;;;5051783;28;20187;-87
2022/01/21 07:43:13;;;;;;;11.50;5.17;;;-1.50;97.30;;;;;;5051735;28;20175;-87
2022/01/21 07:45:39;;;;;;;11.30;4.60;;;-1.50;97.30;;;;;;5072827;28;20175;-87
2022/01/21 07:48:05;;;;;;;36.50;10.97;;;-1.40;97.30;;;;;;5055963;28;20175;-87
2022/01/21 07:50:33;;;;;;;10.17;4.90;;;-1.30;97.30;;;;;;5053921;28;20202;-87
2022/01/21 07:52:59;;;;;;;9.80;3.50;;;-1.30;97.30;;;;;;5071785;28;20962;-86
2022/01/21 07:55:25;;;;;;;9.20;3.53;;;-1.20;97.30;;;;;;5071957;28;20473;-86
2022/01/21 07:57:50;;;;;;;9.13;3.07;;;-1.20;97.30;;;;;;5071483;28;20513;-86
2022/01/21 08:00:16;;;;;;;7.17;2.67;;;-1.10;97.30;;;;;;5051655;28;20282;-87
2022/01/21 08:02:41;;;;;;;20.23;4.00;;;-1.00;97.30;;;;;;5052149;28;20229;-88
2022/01/21 08:05:07;;;;;;;16.33;2.93;;;-1.00;97.30;;;;;;5052300;28;20249;-87
2022/01/21 08:07:33;;;;;;;5.60;3.10;;;-0.90;97.30;;;;;;5051956;28;20183;-87
2022/01/21 08:09:58;;;;;;;8.27;2.47;;;-0.90;97.30;;;;;;5059900;28;20248;-87
2022/01/21 08:12:24;;;;;;;8.03;3.17;;;-0.80;97.30;;;;;;5071668;28;20210;-87
2022/01/21 08:14:49;;;;;;;10.50;3.80;;;-0.80;97.30;;;;;;5071860;28;20253;-87
2022/01/21 08:17:15;;;;;;;10.37;4.63;;;-0.80;97.30;;;;;;5072153;28;20218;-87
2022/01/21 08:19:40;;;;;;;11.37;3.40;;;-0.70;97.30;;;;;;5074204;28;20198;-87
2022/01/21 08:22:06;;;;;;;9.57;3.67;;;-0.70;97.30;;;;;;5074500;28;20183;-87
2022/01/21 08:24:31;;;;;;;11.17;3.83;;;-0.70;97.30;;;;;;5074879;28;20552;-87
2022/01/21 08:26:57;;;;;;;5.90;2.43;;;-0.70;97.30;;;;;;5075703;28;20205;-87
2022/01/21 08:29:22;;;;;;;9.30;3.13;;;-0.60;97.30;;;;;;5074711;28;20297;-85
2022/01/21 08:31:48;;;;;;;9.70;2.90;;;-0.60;97.30;;;;;;5074308;28;20210;-87
2022/01/21 08:34:14;;;;;;;6.40;2.60;;;-0.60;97.30;;;;;;5069569;28;20581;-87
2022/01/21 08:36:40;;;;;;;16.63;2.77;;;-0.50;97.30;;;;;;5054561;28;20189;-87
2022/01/21 08:39:06;;;;;;;8.30;3.00;;;-0.50;97.30;;;;;;5053971;28;20465;-88
2022/01/21 08:41:32;;;;;;;5.70;2.03;;;-0.40;97.30;;;;;;5054296;28;20422;-87
2022/01/21 08:43:58;;;;;;;13.13;4.70;;;-0.40;97.30;;;;;;5054008;28;20429;-88
2022/01/21 08:46:23;;;;;;;7.07;2.70;;;-0.40;97.30;;;;;;5054114;28;20468;-87
2022/01/21 08:48:49;;;;;;;5.23;2.30;;;-0.30;97.30;;;;;;5054159;28;20202;-88
2022/01/21 08:51:22;;;;;;;9.20;2.90;;;-0.30;97.30;;;;;;5054073;28;20206;-87
2022/01/21 08:53:48;;;;;;;20.67;3.40;;;-0.30;97.30;;;;;;5054598;28;20179;-87
2022/01/21 08:56:16;;;;;;;8.00;2.80;;;-0.30;97.30;;;;;;5053915;28;20496;-87
2022/01/21 08:58:43;;;;;;;16.57;2.43;;;-0.20;97.30;;;;;;5054195;28;20821;-88
2022/01/21 09:01:09;;;;;;;4.87;2.37;;;-0.20;97.30;;;;;;5053726;28;20463;-87
2022/01/21 09:03:36;;;;;;;4.40;2.73;;;-0.10;97.30;;;;;;5053959;28;20421;-88
2022/01/21 09:06:02;;;;;;;13.03;2.20;;;0.00;97.30;;;;;;5053947;28;20410;-87
2022/01/21 09:08:30;;;;;;;7.80;2.67;;;0.00;97.30;;;;;;5053585;28;20469;-87
2022/01/21 09:10:57;;;;;;;11.73;2.40;;;0.10;97.30;;;;;;5069508;28;20424;-87
2022/01/21 09:13:26;;;;;;;7.53;2.37;;;0.20;97.30;;;;;;5073609;28;20509;-88
2022/01/21 09:15:52;;;;;;;18.80;3.20;;;0.30;97.30;;;;;;5091446;28;20798;-88
2022/01/21 09:18:19;;;;;;;11.87;2.87;;;0.30;97.30;;;;;;5092101;28;20840;-87
2022/01/21 09:20:46;;;;;;;5.80;2.50;;;0.30;97.30;;;;;;5073159;28;20194;-87
2022/01/21 09:23:11;;;;;;;6.40;2.53;;;0.40;97.30;;;;;;5091744;28;20883;-87
2022/01/21 09:25:37;;;;;;;8.47;2.80;;;0.40;97.30;;;;;;5054895;28;20491;-87
2022/01/21 09:28:03;;;;;;;9.53;2.20;;;0.50;97.30;;;;;;5053246;28;20278;-87
2022/01/21 09:30:30;;;;;;;7.40;2.43;;;0.50;97.30;;;;;;5070755;28;20276;-87
2022/01/21 09:32:56;;;;;;;8.30;4.10;;;0.60;97.30;;;;;;5053584;28;20460;-87
2022/01/21 09:35:22;;;;;;;4.80;2.30;;;0.60;97.30;;;;;;5085696;28;20408;-87
2022/01/21 09:37:47;;;;;;;10.80;2.30;;;0.60;97.30;;;;;;5075418;28;20431;-87
2022/01/21 09:40:13;;;;;;;9.43;3.17;;;0.70;97.30;;;;;;5056226;28;20616;-87
2022/01/21 09:42:39;;;;;;;9.70;2.70;;;0.70;97.30;;;;;;5053648;28;20203;-87
2022/01/21 09:45:12;;;;;;;8.07;2.40;;;0.70;97.30;;;;;;5053125;28;20179;-86
2022/01/21 09:47:46;;;;;;;11.90;2.20;;;0.80;97.30;;;;;;5071071;28;20182;-87
2022/01/21 09:50:16;;;;;;;16.83;3.13;;;0.80;97.30;;;;;;5053037;28;20498;-86
2022/01/21 09:52:46;;;;;;;4.50;1.90;;;0.90;97.30;;;;;;5052599;28;20457;-87
2022/01/21 09:55:12;;;;;;;6.03;2.40;;;1.00;97.30;;;;;;5071419;28;20438;-86
2022/01/21 09:57:41;;;;;;;5.90;2.10;;;1.10;97.30;;;;;;5052692;28;20468;-86
2022/01/21 10:00:08;;;;;;;11.03;2.60;;;1.20;97.30;;;;;;5052971;28;20437;-86
2022/01/21 10:02:35;;;;;;;4.97;2.30;;;1.30;97.30;;;;;;5070503;28;20421;-87
2022/01/21 10:05:01;;;;;;;5.27;2.50;;;1.30;97.30;;;;;;5052731;28;20413;-86
2022/01/21 10:07:29;;;;;;;10.77;3.23;;;1.40;97.30;;;;;;5052791;28;20428;-86
2022/01/21 10:09:56;;;;;;;3.47;2.07;;;1.40;97.30;;;;;;5052464;28;20515;-87
2022/01/21 10:12:23;;;;;;;7.00;2.57;;;1.50;97.30;;;;;;5072979;28;20465;-87
2022/01/21 10:14:49;;;;;;;7.60;2.50;;;1.60;97.30;;;;;;5052289;28;20883;-85
2022/01/21 10:17:15;;;;;;;8.43;2.30;;;1.60;97.30;;;;;;5052569;28;20425;-86
2022/01/21 10:19:45;;;;;;;9.97;2.70;;;1.60;97.30;;;;;;5052061;28;20931;-87
2022/01/21 10:22:18;;;;;;;8.00;2.93;;;1.60;97.30;;;;;;5052727;28;20707;-87
2022/01/21 10:24:58;;;;;;;3.30;2.50;;;1.60;97.30;;;;;;5054781;28;20421;-86
2022/01/21 10:27:32;;;;;;;3.53;2.30;;;1.60;97.30;;;;;;5070482;28;20410;-86
2022/01/21 10:29:58;;;;;;;9.20;2.70;;;1.60;97.30;;;;;;5052901;28;20444;-86
2022/01/21 10:32:39;;;;;;;8.43;2.40;;;1.70;97.30;;;;;;5052488;28;20867;-86
2022/01/21 10:35:29;;;;;;;11.47;3.10;;;1.70;97.30;;;;;;5040851;28;20419;-86
2022/01/21 10:37:58;;;;;;;13.70;2.90;;;1.70;97.30;;;;;;5031999;28;20418;-87
2022/01/21 10:40:34;;;;;;;7.00;3.13;;;1.70;97.30;;;;;;5031249;28;20561;-87
2022/01/21 10:43:17;;;;;;;4.87;2.80;;;1.70;97.30;;;;;;5032039;28;20418;-86
2022/01/21 10:45:56;;;;;;;7.73;3.13;;;1.70;97.30;;;;;;5032250;28;20434;-86
2022/01/21 10:48:21;;;;;;;15.13;3.50;;;1.90;97.30;;;;;;5032091;28;20912;-85
2022/01/21 10:51:20;;;;;;;6.70;2.70;;;2.10;97.30;;;;;;5032083;28;20426;-87
2022/01/21 10:53:46;;;;;;;10.47;3.20;;;2.30;97.30;;;;;;5032016;28;20298;-86
2022/01/21 10:56:17;;;;;;;6.83;2.90;;;2.50;97.30;;;;;;5031983;28;20494;-86
2022/01/21 10:58:51;;;;;;;4.50;2.33;;;2.70;97.30;;;;;;5050278;28;20187;-86
2022/01/21 11:01:20;;;;;;;10.63;3.00;;;2.90;97.30;;;;;;5032770;28;20426;-86
2022/01/21 11:03:56;;;;;;;10.93;2.80;;;3.00;97.30;;;;;;5032092;28;20484;-87
2022/01/21 11:06:24;;;;;;;8.77;2.53;;;2.90;97.30;;;;;;5049566;28;20601;-86
2022/01/21 11:08:50;;;;;;;11.83;2.60;;;2.70;97.30;;;;;;5031687;28;20430;-86
2022/01/21 11:11:22;;;;;;;4.83;1.83;;;2.70;97.30;;;;;;5047170;28;20449;-87
2022/01/21 11:13:48;;;;;;;6.27;2.13;;;2.50;97.30;;;;;;5066837;28;20171;-87
2022/01/21 11:16:24;;;;;;;15.13;3.07;;;2.30;97.30;;;;;;5052959;28;21127;-86
2022/01/21 11:18:56;;;;;;;8.40;2.37;;;2.10;97.30;;;;;;5052151;28;20194;-86
2022/01/21 11:21:23;;;;;;;6.17;2.20;;;2.00;97.30;;;;;;5051812;28;20406;-87
2022/01/21 11:23:49;;;;;;;6.03;3.03;;;2.10;97.30;;;;;;5051786;28;20463;-86
2022/01/21 11:26:16;;;;;;;5.00;2.10;;;2.00;97.30;;;;;;5051893;28;20421;-86
2022/01/21 11:28:49;;;;;;;15.27;2.63;;;2.00;97.30;;;;;;5051639;28;20198;-86
2022/01/21 11:31:23;;;;;;;6.23;2.10;;;1.90;97.30;;;;;;5051452;28;20457;-87
2022/01/21 11:33:49;;;;;;;4.37;2.60;;;1.80;97.30;;;;;;5051724;28;20420;-86
2022/01/21 11:36:16;;;;;;;5.97;1.93;;;1.80;97.30;;;;;;5051997;28;20413;-85
2022/01/21 11:38:48;;;;;;;3.67;2.50;;;1.70;97.30;;;;;;5047059;28;20238;-86
2022/01/21 11:41:15;;;;;;;4.73;1.93;;;1.70;97.30;;;;;;5031383;28;20435;-86
2022/01/21 11:43:51;;;;;;;6.33;2.37;;;1.80;97.30;;;;;;5031772;28;20418;-86
2022/01/21 11:49:09;;;;;;;4.13;2.47;;;2.30;97.30;;;;;;5049747;28;20481;-86
2022/01/21 11:51:39;;;;;;;2.23;1.73;;;2.40;97.30;;;;;;5031688;28;20458;-87
2022/01/21 11:54:08;;;;;;;7.40;2.30;;;2.50;97.30;;;;;;5035570;28;20414;-86
2022/01/21 11:56:47;;;;;;;6.43;2.50;;;2.70;97.30;;;;;;5035585;28;20422;-87
2022/01/21 11:59:26;;;;;;;3.97;1.80;;;2.90;97.30;;;;;;5035240;28;20470;-87
2022/01/21 12:01:53;;;;;;;17.03;2.60;;;3.10;97.30;;;;;;5035432;28;20414;-87
2022/01/21 12:04:30;;;;;;;3.30;1.93;;;3.20;96.70;;;;;;5035268;28;20422;-87
2022/01/21 12:06:57;;;;;;;3.77;1.57;;;3.30;96.10;;;;;;5035495;28;20509;-87
2022/01/21 12:09:55;;;;;;;5.07;1.63;;;3.30;95.20;;;;;;5038045;28;20448;-87
2022/01/21 12:12:23;;;;;;;3.27;1.70;;;3.20;95.20;;;;;;5054944;28;20536;-87
2022/01/21 12:14:53;;;;;;;7.00;1.70;;;3.30;95.20;;;;;;5054885;28;20832;-84
2022/01/21 12:18:04;;;;;;;4.60;2.20;;;3.10;94.50;;;;;;5072770;28;20954;-84
2022/01/21 12:20:31;;;;;;;4.20;2.70;;;2.90;95.10;;;;;;5009331;28;20805;-85
2022/01/21 12:23:17;;;;;;;3.83;1.70;;;2.70;95.70;;;;;;5050546;28;20472;-87
2022/01/21 12:26:13;;;;;;;3.40;1.93;;;2.70;96.40;;;;;;5037425;28;20418;-87
2022/01/21 12:28:46;;;;;;;3.53;1.50;;;2.70;96.30;;;;;;5034402;28;20414;-86
2022/01/21 12:31:14;;;;;;;6.57;1.73;;;2.90;96.30;;;;;;5034492;28;20490;-87
2022/01/21 12:33:54;;;;;;;9.90;2.90;;;3.00;95.90;;;;;;5039219;28;20979;-87
2022/01/21 12:36:28;;;;;;;8.33;1.87;;;3.20;95.80;;;;;;5052471;28;20417;-87
2022/01/21 12:41:22;;;;;;;5.23;1.90;;;3.30;94.20;;;;;;5072446;28;20406;-86
2022/01/21 12:44:01;;;;;;;6.63;2.33;;;3.30;94.00;;;;;;5053883;28;20425;-87
2022/01/21 12:46:28;;;;;;;1.70;1.20;;;3.30;94.40;;;;;;5054285;28;20471;-87
2022/01/21 12:48:56;;;;;;;3.17;1.57;;;3.50;93.80;;;;;;5054139;28;20619;-86
2022/01/21 12:56:48;;;;;;;2.70;1.40;;;3.80;94.50;;;;;;5072252;28;20420;-85
2022/01/21 12:59:21;;;;;;;6.80;1.90;;;3.90;93.50;;;;;;5054256;28;20954;-87
2022/01/21 13:01:48;;;;;;;2.03;1.47;;;4.00;92.70;;;;;;5054069;28;20510;-86
2022/01/21 13:04:44;;;;;;;2.50;1.57;;;4.00;91.90;;;;;;5053812;28;20988;-84
2022/01/21 13:07:17;;;;;;;6.20;2.53;;;4.00;91.30;;;;;;5050615;28;20789;-84
2022/01/21 13:10:02;;;;;;;1.20;1.10;;;4.10;91.20;;;;;;5053928;28;20855;-84
2022/01/21 13:13:35;;;;;;;3.37;1.47;;;4.20;90.80;;;;;;5071787;28;20907;-84
2022/01/21 13:15:55;;;;;;;5.60;1.33;;;4.30;90.70;;;;;;5053805;28;20674;-84
2022/01/21 13:18:28;;;;;;;1.80;1.30;;;4.20;90.00;;;;;;5053877;28;20412;-85
2022/01/21 13:21:04;;;;;;;5.70;1.37;;;4.20;90.50;;;;;;5053933;28;20418;-84
2022/01/21 13:23:40;;;;;;;2.67;1.60;;;4.30;90.40;;;;;;5053383;28;20440;-84
2022/01/21 13:26:16;;;;;;;8.13;1.73;;;4.40;89.90;;;;;;5055027;28;20421;-84
2022/01/21 13:28:58;;;;;;;3.33;1.57;;;4.60;90.00;;;;;;5053446;28;20829;-84
2022/01/21 13:31:25;;;;;;;2.87;1.43;;;4.80;89.60;;;;;;5053292;28;20485;-85
2022/01/21 13:33:50;;;;;;;2.57;1.50;;;4.90;88.60;;;;;;5051758;28;20432;-85
2022/01/21 13:36:39;;;;;;;5.17;1.67;;;4.80;88.20;;;;;;5034062;28;20993;-85
2022/01/21 13:39:09;;;;;;;20.33;5.20;;;4.80;88.40;;;;;;5032766;28;20254;-85
2022/01/21 13:41:54;;;;;;;11.40;5.00;;;4.90;88.50;;;;;;5042051;28;20426;-84